createdAt,value
2023-02-16T00:00:14.725Z,3.80
2023-02-16T00:02:38.052Z,3.70
2023-02-16T00:05:01.319Z,3.80
2023-02-16T00:07:26.055Z,3.80
2023-02-16T00:09:49.667Z,3.70
2023-02-16T00:12:37.976Z,3.50
2023-02-16T00:15:01.445Z,3.70
2023-02-16T00:17:24.771Z,3.70
2023-02-16T00:19:48.130Z,3.60
2023-02-16T00:22:12.171Z,3.60
2023-02-16T00:24:37.704Z,3.60
2023-02-16T00:27:02.144Z,3.50
2023-02-16T00:29:29.188Z,3.50
2023-02-16T00:31:53.440Z,3.50
2023-02-16T00:34:30.893Z,3.50
2023-02-16T00:36:54.329Z,3.50
2023-02-16T00:39:19.083Z,3.50
2023-02-16T00:41:53.965Z,3.40
2023-02-16T00:44:20.881Z,3.30
2023-02-16T00:46:45.016Z,3.40
2023-02-16T00:49:14.705Z,3.40
2023-02-16T00:51:38.068Z,3.40
2023-02-16T00:54:01.360Z,3.30
2023-02-16T00:56:24.786Z,3.20
2023-02-16T00:58:52.039Z,3.20
2023-02-16T01:01:18.257Z,3.10
2023-02-16T01:03:45.328Z,3.00
2023-02-16T01:06:26.532Z,3.00
2023-02-16T01:09:07.846Z,2.90
2023-02-16T01:11:31.400Z,2.90
2023-02-16T01:13:58.540Z,2.90
2023-02-16T01:16:25.015Z,2.90
2023-02-16T01:18:49.005Z,2.80
2023-02-16T01:21:12.327Z,2.70
2023-02-16T01:23:35.725Z,2.70
2023-02-16T01:25:59.044Z,2.70
2023-02-16T01:28:26.085Z,2.60
2023-02-16T01:30:51.692Z,2.50
2023-02-16T01:33:15.235Z,2.60
2023-02-16T01:35:38.648Z,2.50
2023-02-16T01:38:02.382Z,2.60
2023-02-16T01:40:43.585Z,2.60
2023-02-16T01:43:18.718Z,2.60
2023-02-16T01:45:44.520Z,2.70
2023-02-16T01:48:20.092Z,2.60
2023-02-16T01:50:54.942Z,2.60
2023-02-16T01:53:24.279Z,2.50
2023-02-16T01:55:50.998Z,2.50
2023-02-16T01:58:23.962Z,2.50
2023-02-16T02:01:34.105Z,2.50
2023-02-16T02:04:16.341Z,2.50
2023-02-16T02:06:39.814Z,2.40
2023-02-16T02:09:08.367Z,2.30
2023-02-16T02:11:36.897Z,2.30
2023-02-16T02:14:07.932Z,2.20
2023-02-16T02:16:31.748Z,2.20
2023-02-16T02:18:55.675Z,2.40
2023-02-16T02:22:13.039Z,2.30
2023-02-16T02:25:05.528Z,2.20
2023-02-16T02:27:34.182Z,2.20
2023-02-16T02:30:21.714Z,2.10
2023-02-16T02:33:18.742Z,2.10
2023-02-16T02:35:52.066Z,2.00
2023-02-16T02:38:26.075Z,2.00
2023-02-16T02:41:00.909Z,2.20
2023-02-16T02:43:33.066Z,2.20
2023-02-16T02:46:00.959Z,2.20
2023-02-16T02:48:24.359Z,2.10
2023-02-16T02:51:12.556Z,2.10
2023-02-16T02:53:41.178Z,2.20
2023-02-16T02:56:35.689Z,2.20
2023-02-16T02:59:23.139Z,2.20
2023-02-16T03:01:51.758Z,2.10
2023-02-16T03:04:19.914Z,2.20
2023-02-16T03:06:48.994Z,2.20
2023-02-16T03:09:15.702Z,2.30
2023-02-16T03:11:57.326Z,2.40
2023-02-16T03:14:26.755Z,2.50
2023-02-16T03:17:11.496Z,2.50
2023-02-16T03:19:52.189Z,2.50
2023-02-16T03:22:32.901Z,2.60
2023-02-16T03:25:13.981Z,2.50
2023-02-16T03:27:58.768Z,2.50
2023-02-16T03:30:24.963Z,2.50
2023-02-16T03:32:49.416Z,2.50
2023-02-16T03:35:13.302Z,2.50
2023-02-16T03:37:36.875Z,2.60
2023-02-16T03:40:17.687Z,2.50
2023-02-16T03:42:40.997Z,2.60
2023-02-16T03:45:04.583Z,2.60
2023-02-16T03:47:29.267Z,2.60
2023-02-16T03:49:52.521Z,2.60
2023-02-16T03:52:15.868Z,2.50
2023-02-16T03:54:39.132Z,2.50
2023-02-16T03:57:02.680Z,2.40
2023-02-16T03:59:26.148Z,2.40
2023-02-16T04:01:49.590Z,2.40
2023-02-16T04:04:15.296Z,2.40
2023-02-16T04:06:38.663Z,2.40
2023-02-16T04:09:02.720Z,2.40
2023-02-16T04:11:43.561Z,2.40
2023-02-16T04:14:06.971Z,2.40
2023-02-16T04:16:30.219Z,2.50
2023-02-16T04:18:53.823Z,2.40
2023-02-16T04:21:18.430Z,2.50
2023-02-16T04:23:42.192Z,2.40
2023-02-16T04:26:05.760Z,2.50
2023-02-16T04:28:29.003Z,2.40
2023-02-16T04:30:52.894Z,2.50
2023-02-16T04:33:16.351Z,2.50
2023-02-16T04:35:39.592Z,2.50
2023-02-16T04:38:04.190Z,2.50
2023-02-16T04:40:27.488Z,2.50
2023-02-16T04:42:50.754Z,2.50
2023-02-16T04:45:14.835Z,2.50
2023-02-16T04:47:38.414Z,2.50
2023-02-16T04:50:01.926Z,2.40
2023-02-16T04:52:25.402Z,2.40
2023-02-16T04:54:50.210Z,2.50
2023-02-16T04:57:14.138Z,2.50
2023-02-16T04:59:37.747Z,2.40
2023-02-16T05:02:01.220Z,2.40
2023-02-16T05:04:25.210Z,2.50
2023-02-16T05:06:48.732Z,2.40
2023-02-16T05:09:12.688Z,2.50
2023-02-16T05:11:54.972Z,2.50
2023-02-16T05:14:38.941Z,2.50
2023-02-16T05:17:02.368Z,2.50
2023-02-16T05:19:25.714Z,2.50
2023-02-16T05:21:49.054Z,2.50
2023-02-16T05:24:13.439Z,2.50
2023-02-16T05:26:40.236Z,2.50
2023-02-16T05:29:04.484Z,2.50
2023-02-16T05:31:29.311Z,2.40
2023-02-16T05:33:53.123Z,2.40
2023-02-16T05:36:16.573Z,2.50
2023-02-16T05:38:39.905Z,2.50
2023-02-16T05:41:04.128Z,2.50
2023-02-16T05:43:29.314Z,2.50
2023-02-16T05:45:52.751Z,2.50
2023-02-16T05:48:16.237Z,2.70
2023-02-16T05:50:39.514Z,2.60
2023-02-16T05:53:02.749Z,2.60
2023-02-16T05:55:26.550Z,2.70
2023-02-16T05:57:49.890Z,2.70
2023-02-16T06:00:16.689Z,2.70
2023-02-16T06:02:39.974Z,2.80
2023-02-16T06:05:03.359Z,2.80
2023-02-16T06:07:26.622Z,2.80
2023-02-16T06:09:50.099Z,2.80
2023-02-16T06:12:13.483Z,2.90
2023-02-16T06:14:36.825Z,3.00
2023-02-16T06:17:01.538Z,3.00
2023-02-16T06:19:25.105Z,3.00
2023-02-16T06:21:48.651Z,3.00
2023-02-16T06:24:14.381Z,3.00
2023-02-16T06:26:38.244Z,3.00
2023-02-16T06:29:01.891Z,3.00
2023-02-16T06:31:25.834Z,3.00
2023-02-16T06:33:51.088Z,3.10
2023-02-16T06:36:14.725Z,3.10
2023-02-16T06:38:38.065Z,3.10
2023-02-16T06:41:01.616Z,3.20
2023-02-16T06:43:25.141Z,3.20
2023-02-16T06:45:49.215Z,3.20
2023-02-16T06:48:12.481Z,3.20
2023-02-16T06:50:37.616Z,3.20
2023-02-16T06:53:01.029Z,3.30
2023-02-16T06:55:24.344Z,3.40
2023-02-16T06:57:47.591Z,3.40
2023-02-16T07:00:12.391Z,3.50
2023-02-16T07:02:37.526Z,3.50
2023-02-16T07:05:00.951Z,3.50
2023-02-16T07:07:25.613Z,3.50
2023-02-16T07:09:49.149Z,3.50
2023-02-16T07:12:12.533Z,3.50
2023-02-16T07:14:35.839Z,3.50
2023-02-16T07:17:04.151Z,3.60
2023-02-16T07:19:30.340Z,3.60
2023-02-16T07:21:55.238Z,3.60
2023-02-16T07:24:19.970Z,3.60
2023-02-16T07:26:43.367Z,3.70
2023-02-16T07:29:06.689Z,3.80
2023-02-16T07:31:30.179Z,3.70
2023-02-16T07:33:53.978Z,3.80
2023-02-16T07:36:17.243Z,3.80
2023-02-16T07:38:41.943Z,3.80
2023-02-16T07:41:09.514Z,3.80
2023-02-16T07:43:34.586Z,3.90
2023-02-16T07:45:58.130Z,3.90
2023-02-16T07:48:21.993Z,4.00
2023-02-16T07:50:45.693Z,4.00
2023-02-16T07:53:11.189Z,4.00
2023-02-16T07:55:41.024Z,4.10
2023-02-16T07:58:05.666Z,4.20
2023-02-16T08:00:29.114Z,4.30
2023-02-16T08:02:52.957Z,4.40
2023-02-16T08:05:17.932Z,4.50
2023-02-16T08:07:41.868Z,4.50
2023-02-16T08:10:05.939Z,4.50
2023-02-16T08:12:29.182Z,4.60
2023-02-16T08:14:54.561Z,4.50
2023-02-16T08:17:17.988Z,4.60
2023-02-16T08:19:41.600Z,4.80
2023-02-16T08:22:06.120Z,4.90
2023-02-16T08:24:30.022Z,4.90
2023-02-16T08:26:55.802Z,5.00
2023-02-16T08:29:19.898Z,5.00
2023-02-16T08:31:46.218Z,5.10
2023-02-16T08:34:10.601Z,5.20
2023-02-16T08:36:36.379Z,5.30
2023-02-16T08:39:00.906Z,5.50
2023-02-16T08:41:29.342Z,5.50
2023-02-16T08:43:53.535Z,5.50
2023-02-16T08:46:18.295Z,5.60
2023-02-16T08:48:45.241Z,5.60
2023-02-16T08:51:09.941Z,5.70
2023-02-16T08:53:34.129Z,5.80
2023-02-16T08:55:59.630Z,5.90
2023-02-16T08:58:23.642Z,6.00
2023-02-16T09:00:47.785Z,6.00
2023-02-16T09:03:11.072Z,6.00
2023-02-16T09:05:35.805Z,6.00
2023-02-16T09:07:59.164Z,6.10
2023-02-16T09:10:23.029Z,6.20
2023-02-16T09:12:48.501Z,6.30
2023-02-16T09:15:12.341Z,6.50
2023-02-16T09:17:36.081Z,6.60
2023-02-16T09:19:59.352Z,6.50
2023-02-16T09:22:24.060Z,6.40
2023-02-16T09:24:47.349Z,6.40
2023-02-16T09:27:11.635Z,6.50
2023-02-16T09:29:35.536Z,6.50
2023-02-16T09:31:58.820Z,6.50
2023-02-16T09:34:26.240Z,6.50
2023-02-16T09:36:51.669Z,6.50
2023-02-16T09:39:17.546Z,6.50
2023-02-16T09:42:01.369Z,6.70
2023-02-16T09:44:37.322Z,6.70
2023-02-16T09:47:04.865Z,6.70
2023-02-16T09:49:33.511Z,6.60
2023-02-16T09:52:04.816Z,6.60
2023-02-16T09:54:38.884Z,6.70
2023-02-16T09:57:09.231Z,6.70
2023-02-16T09:59:48.371Z,6.70
2023-02-16T10:02:36.517Z,6.70
2023-02-16T10:05:20.203Z,6.80
2023-02-16T10:08:07.571Z,6.80
2023-02-16T10:10:42.043Z,6.80
2023-02-16T10:13:15.517Z,6.80
2023-02-16T10:15:42.769Z,6.90
2023-02-16T10:18:18.365Z,6.90
2023-02-16T10:20:46.065Z,6.90
2023-02-16T10:23:24.231Z,7.00
2023-02-16T10:25:56.486Z,7.00
2023-02-16T10:28:23.228Z,7.10
2023-02-16T10:30:52.387Z,7.20
2023-02-16T10:33:18.944Z,7.20
2023-02-16T10:35:48.146Z,7.30
2023-02-16T10:38:18.241Z,7.30
2023-02-16T10:40:54.040Z,7.40
2023-02-16T10:43:25.275Z,7.50
2023-02-16T10:45:52.812Z,7.60
2023-02-16T10:48:16.234Z,7.60
2023-02-16T10:50:44.180Z,7.70
2023-02-16T10:53:15.427Z,7.90
2023-02-16T10:55:39.432Z,7.80
2023-02-16T10:58:04.512Z,8.00
2023-02-16T11:00:48.565Z,8.10
2023-02-16T11:03:15.571Z,8.10
2023-02-16T11:05:41.869Z,8.10
2023-02-16T11:08:10.794Z,8.20
2023-02-16T11:10:53.647Z,8.20
2023-02-16T11:13:28.107Z,8.30
2023-02-16T11:15:54.885Z,8.30
2023-02-16T11:18:31.558Z,8.30
2023-02-16T11:20:56.413Z,8.40
2023-02-16T11:23:26.089Z,8.50
2023-02-16T11:25:58.136Z,8.50
2023-02-16T11:28:32.067Z,8.50
2023-02-16T11:31:05.637Z,8.50
2023-02-16T11:33:30.402Z,8.60
2023-02-16T11:35:54.317Z,8.60
2023-02-16T11:38:37.065Z,8.60
2023-02-16T11:41:03.006Z,8.50
2023-02-16T11:43:32.558Z,8.50
2023-02-16T11:46:02.537Z,8.50
2023-02-16T11:48:29.581Z,8.50
2023-02-16T11:50:59.429Z,8.50
2023-02-16T11:53:27.192Z,8.40
2023-02-16T11:55:53.035Z,8.40
2023-02-16T11:58:20.228Z,8.40
2023-02-16T12:00:58.422Z,8.40
2023-02-16T12:03:49.928Z,8.40
2023-02-16T12:06:33.632Z,8.50
2023-02-16T12:09:10.962Z,8.60
2023-02-16T12:11:47.119Z,8.70
2023-02-16T12:14:32.423Z,8.80
2023-02-16T12:17:08.095Z,8.80
2023-02-16T12:19:42.775Z,8.80
2023-02-16T12:22:22.116Z,9.00
2023-02-16T12:24:55.872Z,9.00
2023-02-16T12:27:26.783Z,9.10
2023-02-16T12:29:59.947Z,9.20
2023-02-16T12:32:49.321Z,9.30
2023-02-16T12:35:47.353Z,9.30
2023-02-16T12:38:24.597Z,9.30
2023-02-16T12:40:58.577Z,9.40
2023-02-16T12:43:35.894Z,9.30
2023-02-16T12:46:07.183Z,9.30
2023-02-16T12:48:42.523Z,9.50
2023-02-16T12:51:11.656Z,9.50
2023-02-16T12:53:44.983Z,9.50
2023-02-16T12:56:14.447Z,9.50
2023-02-16T12:58:41.704Z,9.60
2023-02-16T13:01:13.928Z,9.50
2023-02-16T13:03:42.265Z,9.60
2023-02-16T13:06:17.442Z,9.70
2023-02-16T13:08:46.635Z,9.80
2023-02-16T13:11:20.287Z,9.90
2023-02-16T13:13:46.718Z,10.00
2023-02-16T13:16:29.623Z,10.10
2023-02-16T13:18:57.216Z,10.00
2023-02-16T13:21:51.232Z,10.10
2023-02-16T13:24:49.293Z,10.10
2023-02-16T13:27:32.880Z,10.20
2023-02-16T13:30:36.281Z,10.10
2023-02-16T13:33:18.157Z,10.10
2023-02-16T13:36:19.149Z,10.10
2023-02-16T13:39:25.481Z,10.00
2023-02-16T13:42:52.120Z,10.00
2023-02-16T13:45:19.512Z,10.00
2023-02-16T13:47:43.414Z,10.00
2023-02-16T13:50:16.322Z,10.00
2023-02-16T13:52:43.769Z,10.00
2023-02-16T13:55:21.771Z,10.00
2023-02-16T13:58:07.312Z,10.10
2023-02-16T14:00:34.672Z,10.30
2023-02-16T14:03:02.092Z,10.50
2023-02-16T14:05:31.157Z,10.70
2023-02-16T14:08:21.791Z,10.80
2023-02-16T14:11:12.576Z,10.70
2023-02-16T14:13:49.914Z,10.70
2023-02-16T14:16:29.107Z,10.70
2023-02-16T14:19:00.233Z,10.70
2023-02-16T14:21:34.033Z,10.80
2023-02-16T14:24:00.646Z,10.80
2023-02-16T14:26:24.314Z,10.90
2023-02-16T14:29:18.527Z,10.90
2023-02-16T14:31:48.867Z,10.80
2023-02-16T14:34:20.515Z,10.70
2023-02-16T14:37:27.841Z,10.80
2023-02-16T14:40:07.542Z,10.90
2023-02-16T14:42:34.556Z,10.90
2023-02-16T14:45:22.237Z,11.00
2023-02-16T14:47:56.680Z,10.90
2023-02-16T14:50:38.406Z,11.00
2023-02-16T14:53:43.543Z,11.00
2023-02-16T14:56:39.799Z,11.10
2023-02-16T14:59:07.937Z,11.40
2023-02-16T15:01:42.252Z,11.30
2023-02-16T15:04:05.792Z,11.20
2023-02-16T15:06:33.914Z,11.30
2023-02-16T15:09:01.062Z,11.20
2023-02-16T15:11:33.003Z,11.30
2023-02-16T15:13:56.934Z,11.30
2023-02-16T15:16:22.681Z,11.20
2023-02-16T15:18:49.382Z,11.50
2023-02-16T15:21:18.857Z,11.50
2023-02-16T15:23:51.347Z,11.50
2023-02-16T15:26:22.013Z,11.60
2023-02-16T15:28:54.837Z,11.70
2023-02-16T15:31:23.645Z,11.50
2023-02-16T15:33:56.980Z,11.40
2023-02-16T15:36:24.413Z,11.40
2023-02-16T15:38:58.504Z,11.40
2023-02-16T15:41:30.003Z,11.40
2023-02-16T15:43:55.517Z,11.40
2023-02-16T15:46:27.440Z,11.50
2023-02-16T15:48:51.343Z,11.40
2023-02-16T15:51:20.427Z,11.50
2023-02-16T15:53:51.424Z,11.40
2023-02-16T15:56:29.535Z,11.40
2023-02-16T15:58:54.398Z,11.30
2023-02-16T16:01:31.630Z,11.40
2023-02-16T16:03:55.512Z,11.30
2023-02-16T16:06:19.234Z,11.30
2023-02-16T16:08:42.769Z,11.30
2023-02-16T16:11:06.943Z,11.30
2023-02-16T16:13:31.926Z,11.30
2023-02-16T16:16:01.758Z,11.30
2023-02-16T16:18:46.693Z,11.30
2023-02-16T16:21:21.929Z,11.40
2023-02-16T16:23:59.641Z,11.30
2023-02-16T16:26:24.988Z,11.30
2023-02-16T16:28:48.464Z,11.20
2023-02-16T16:31:16.263Z,11.20
2023-02-16T16:33:56.700Z,11.30
2023-02-16T16:36:20.904Z,11.20
2023-02-16T16:38:44.234Z,11.20
2023-02-16T16:41:07.537Z,11.20
2023-02-16T16:43:32.409Z,11.20
2023-02-16T16:46:11.330Z,11.20
2023-02-16T16:48:37.460Z,11.10
2023-02-16T16:51:13.444Z,11.20
2023-02-16T16:53:46.545Z,11.10
2023-02-16T16:56:14.746Z,11.10
2023-02-16T16:58:38.115Z,11.20
2023-02-16T17:01:01.359Z,11.10
2023-02-16T17:03:24.661Z,11.00
2023-02-16T17:05:49.225Z,11.00
2023-02-16T17:08:13.229Z,11.00
2023-02-16T17:10:38.225Z,11.10
2023-02-16T17:13:03.049Z,11.10
2023-02-16T17:15:33.597Z,11.10
2023-02-16T17:17:57.712Z,11.20
2023-02-16T17:20:21.657Z,11.20
2023-02-16T17:22:50.836Z,11.10
2023-02-16T17:25:14.190Z,11.30
2023-02-16T17:27:38.194Z,11.20
2023-02-16T17:30:01.493Z,11.20
2023-02-16T17:32:25.007Z,11.20
2023-02-16T17:34:48.358Z,11.20
2023-02-16T17:37:11.939Z,11.20
2023-02-16T17:39:36.954Z,11.10
2023-02-16T17:42:01.266Z,11.00
2023-02-16T17:44:25.129Z,11.10
2023-02-16T17:46:48.619Z,11.10
2023-02-16T17:49:13.406Z,11.00
2023-02-16T17:51:37.199Z,11.10
2023-02-16T17:54:00.530Z,11.00
2023-02-16T17:56:26.017Z,11.00
2023-02-16T17:58:49.461Z,11.10
2023-02-16T18:01:15.319Z,11.00
2023-02-16T18:03:38.726Z,11.00
2023-02-16T18:06:02.057Z,11.00
2023-02-16T18:08:25.399Z,11.10
2023-02-16T18:10:52.028Z,11.00
2023-02-16T18:13:17.071Z,11.20
2023-02-16T18:15:42.672Z,11.20
2023-02-16T18:18:06.538Z,11.30
2023-02-16T18:20:29.904Z,11.30
2023-02-16T18:22:53.706Z,11.20
2023-02-16T18:25:17.401Z,11.30
2023-02-16T18:27:40.824Z,11.30
2023-02-16T18:30:06.825Z,11.40
2023-02-16T18:32:30.677Z,11.20
2023-02-16T18:34:54.576Z,11.40
2023-02-16T18:37:18.338Z,11.30
2023-02-16T18:39:42.953Z,11.30
2023-02-16T18:42:06.437Z,11.40
2023-02-16T18:44:30.233Z,11.30
2023-02-16T18:46:54.980Z,11.30
2023-02-16T18:49:18.340Z,11.30
2023-02-16T18:51:41.738Z,11.20
2023-02-16T18:54:05.543Z,11.10
2023-02-16T18:56:29.170Z,11.10
2023-02-16T18:58:52.471Z,11.00
2023-02-16T19:01:23.406Z,11.00
2023-02-16T19:03:48.174Z,11.00
2023-02-16T19:06:11.606Z,11.00
2023-02-16T19:08:34.953Z,11.00
2023-02-16T19:10:58.261Z,11.00
2023-02-16T19:13:21.697Z,11.00
2023-02-16T19:15:45.051Z,10.90
2023-02-16T19:18:08.515Z,10.80
2023-02-16T19:20:33.270Z,10.80
2023-02-16T19:22:57.357Z,10.80
2023-02-16T19:25:21.211Z,10.70
2023-02-16T19:27:45.516Z,10.60
2023-02-16T19:30:10.315Z,10.60
2023-02-16T19:32:33.915Z,10.50
2023-02-16T19:34:57.476Z,10.50
2023-02-16T19:37:22.554Z,10.50
2023-02-16T19:39:46.005Z,10.40
2023-02-16T19:42:09.555Z,10.50
2023-02-16T19:44:34.036Z,10.50
2023-02-16T19:46:57.402Z,10.50
2023-02-16T19:49:20.678Z,10.40
2023-02-16T19:51:46.267Z,10.40
2023-02-16T19:54:11.050Z,10.40
2023-02-16T19:56:36.273Z,10.40
2023-02-16T19:59:00.145Z,10.40
2023-02-16T20:01:26.054Z,10.40
2023-02-16T20:03:51.242Z,10.40
2023-02-16T20:06:17.616Z,10.30
2023-02-16T20:08:41.089Z,10.30
2023-02-16T20:11:08.485Z,10.30
2023-02-16T20:13:32.039Z,10.30
2023-02-16T20:15:55.372Z,10.30
2023-02-16T20:18:18.729Z,10.30
2023-02-16T20:20:42.117Z,10.30
2023-02-16T20:23:05.418Z,10.30
2023-02-16T20:25:28.891Z,10.30
2023-02-16T20:27:53.640Z,10.30
2023-02-16T20:30:19.674Z,10.30
2023-02-16T20:32:43.098Z,10.30
2023-02-16T20:35:08.906Z,10.30
2023-02-16T20:37:32.188Z,10.30
2023-02-16T20:39:55.619Z,10.30
2023-02-16T20:42:18.969Z,10.40
2023-02-16T20:44:43.785Z,10.40
2023-02-16T20:47:08.708Z,10.40
2023-02-16T20:49:33.559Z,10.50
2023-02-16T20:51:57.578Z,10.50
2023-02-16T20:54:21.040Z,10.50
2023-02-16T20:56:44.416Z,10.50
2023-02-16T20:59:07.757Z,10.50
2023-02-16T21:01:37.067Z,10.50
2023-02-16T21:04:01.402Z,10.50
2023-02-16T21:06:25.638Z,10.50
2023-02-16T21:08:48.999Z,10.40
2023-02-16T21:11:13.291Z,10.50
2023-02-16T21:13:37.968Z,10.50
2023-02-16T21:16:01.385Z,10.50
2023-02-16T21:18:26.316Z,10.50
2023-02-16T21:20:49.598Z,10.50
2023-02-16T21:23:13.005Z,10.50
2023-02-16T21:25:36.382Z,10.50
2023-02-16T21:27:59.796Z,10.50
2023-02-16T21:30:23.124Z,10.50
2023-02-16T21:32:46.408Z,10.60
2023-02-16T21:35:11.070Z,10.60
2023-02-16T21:37:35.780Z,10.60
2023-02-16T21:40:16.570Z,10.60
2023-02-16T21:42:39.882Z,10.70
2023-02-16T21:45:17.041Z,10.70
2023-02-16T21:47:58.864Z,10.80
2023-02-16T21:50:23.724Z,10.80
2023-02-16T21:52:46.994Z,10.60
2023-02-16T21:55:28.532Z,10.60
2023-02-16T21:57:53.074Z,10.70
2023-02-16T22:00:17.640Z,10.70
2023-02-16T22:02:40.959Z,10.70
2023-02-16T22:05:04.394Z,10.70
2023-02-16T22:07:28.963Z,10.60
2023-02-16T22:09:52.590Z,10.60
2023-02-16T22:12:16.209Z,10.70
2023-02-16T22:14:39.536Z,10.70
2023-02-16T22:17:04.257Z,10.80
2023-02-16T22:19:27.560Z,10.80
2023-02-16T22:21:51.508Z,10.80
2023-02-16T22:24:18.794Z,10.70
2023-02-16T22:26:42.978Z,10.70
2023-02-16T22:29:08.474Z,10.60
2023-02-16T22:31:31.919Z,10.70
2023-02-16T22:33:59.185Z,10.60
2023-02-16T22:36:22.886Z,10.70
2023-02-16T22:38:46.294Z,10.80
2023-02-16T22:41:12.805Z,10.80
2023-02-16T22:43:36.837Z,10.80
2023-02-16T22:46:00.214Z,10.80
2023-02-16T22:48:23.528Z,10.80
2023-02-16T22:50:46.763Z,10.80
2023-02-16T22:53:10.243Z,10.90
2023-02-16T22:55:33.553Z,10.90
2023-02-16T22:57:58.246Z,10.90
2023-02-16T23:00:21.704Z,10.80
2023-02-16T23:02:45.140Z,10.90
2023-02-16T23:05:09.015Z,11.00
2023-02-16T23:07:33.022Z,10.90
2023-02-16T23:09:56.324Z,10.90
2023-02-16T23:12:19.978Z,10.90
2023-02-16T23:14:44.689Z,11.00
2023-02-16T23:17:07.967Z,11.00
2023-02-16T23:19:32.490Z,11.00
2023-02-16T23:21:56.050Z,10.90
2023-02-16T23:24:21.542Z,11.00
2023-02-16T23:26:44.982Z,10.90
2023-02-16T23:29:08.672Z,11.10
2023-02-16T23:31:39.074Z,11.00
2023-02-16T23:34:03.240Z,11.10
2023-02-16T23:36:26.548Z,11.10
2023-02-16T23:38:49.770Z,11.10
2023-02-16T23:41:15.554Z,11.10
2023-02-16T23:43:40.502Z,11.10
2023-02-16T23:46:04.205Z,11.10
2023-02-16T23:48:29.409Z,11.10
2023-02-16T23:50:54.290Z,11.00
2023-02-16T23:53:17.524Z,11.10
2023-02-16T23:55:41.049Z,11.00
2023-02-16T23:58:04.349Z,11.10
